Time;durP1;ratioP1;P1;durP2;ratioP2;P2;SDS_P1;SDS_P2;PMS_P1;PMS_P2;Temp;Humidity;BMP_temperature;BMP_pressure;BME280_temperature;BME280_humidity;BME280_pressure;Samples;Min_cycle;Max_cycle;Signal;HPM_P1;HPM_P2
2023/11/04 00:00:45;;;;;;;2.58;1.75;;;6.40;99.90;;;;;;5031722;28;20026;-75
2023/11/04 00:03:10;;;;;;;2.58;2.03;;;6.40;99.90;;;;;;5100167;28;20024;-75
2023/11/04 00:05:37;;;;;;;2.10;1.85;;;6.40;99.90;;;;;;5025920;28;20022;-81
2023/11/04 00:08:04;;;;;;;1.60;1.50;;;6.50;99.90;;;;;;5031620;28;20021;-81
2023/11/04 00:10:30;;;;;;;2.20;2.00;;;6.50;99.90;;;;;;5031164;28;20045;-81
2023/11/04 00:12:56;;;;;;;2.63;1.73;;;6.50;99.90;;;;;;5031606;28;20427;-75
2023/11/04 00:15:22;;;;;;;2.13;1.92;;;6.50;99.90;;;;;;5094787;28;20049;-81
2023/11/04 00:17:47;;;;;;;2.72;2.15;;;6.60;99.90;;;;;;5031631;28;20047;-81
2023/11/04 00:20:13;;;;;;;3.47;1.98;;;6.50;99.90;;;;;;5031423;28;20405;-75
2023/11/04 00:22:39;;;;;;;2.85;1.88;;;6.50;99.90;;;;;;5029403;28;20018;-75
2023/11/04 00:25:06;;;;;;;2.20;1.92;;;6.50;99.90;;;;;;5093941;28;20078;-81
2023/11/04 00:27:31;;;;;;;2.75;2.20;;;6.50;99.90;;;;;;5031051;28;20490;-81
2023/11/04 00:29:57;;;;;;;2.40;2.10;;;6.40;99.90;;;;;;5099526;28;20044;-81
2023/11/04 00:32:23;;;;;;;2.13;1.98;;;6.40;99.90;;;;;;5031104;28;20030;-75
2023/11/04 00:34:49;;;;;;;2.33;2.13;;;6.40;99.90;;;;;;5088286;28;20399;-80
2023/11/04 00:37:14;;;;;;;2.90;1.80;;;6.40;99.90;;;;;;5030973;28;20030;-80
2023/11/04 00:39:40;;;;;;;2.72;2.25;;;6.40;99.90;;;;;;5031226;28;20100;-81
2023/11/04 00:42:06;;;;;;;1.77;1.67;;;6.40;99.90;;;;;;5031143;28;20017;-80
2023/11/04 00:44:32;;;;;;;1.90;1.80;;;6.40;99.90;;;;;;5031041;28;20093;-81
2023/11/04 00:46:58;;;;;;;1.73;1.63;;;6.40;99.90;;;;;;5099181;28;20018;-81
2023/11/04 00:49:24;;;;;;;2.17;1.98;;;6.40;99.90;;;;;;5090801;28;20550;-81
2023/11/04 00:51:49;;;;;;;2.38;2.20;;;6.50;99.90;;;;;;5094902;28;20133;-81
2023/11/04 00:54:15;;;;;;;2.08;1.95;;;6.50;99.90;;;;;;5024767;28;20030;-81
2023/11/04 00:56:41;;;;;;;1.90;1.80;;;6.50;99.90;;;;;;5099110;28;20022;-82
2023/11/04 00:59:07;;;;;;;1.52;1.42;;;6.50;99.90;;;;;;5030841;28;20063;-82
2023/11/04 01:01:33;;;;;;;1.80;1.60;;;6.60;99.90;;;;;;5098945;28;20040;-81
2023/11/04 01:03:59;;;;;;;1.80;1.58;;;6.50;99.90;;;;;;5030562;28;20032;-75
2023/11/04 01:06:25;;;;;;;2.35;2.15;;;6.50;99.90;;;;;;5096847;28;20025;-81
2023/11/04 01:08:50;;;;;;;2.38;2.08;;;6.50;99.90;;;;;;5097705;28;20021;-75
2023/11/04 01:11:17;;;;;;;2.00;1.80;;;6.60;99.90;;;;;;5098451;28;20367;-80
2023/11/04 01:13:43;;;;;;;2.13;1.95;;;6.50;99.90;;;;;;5098566;28;20037;-80
2023/11/04 01:16:09;;;;;;;2.78;2.00;;;6.50;99.90;;;;;;5030225;28;20018;-75
2023/11/04 01:18:35;;;;;;;2.08;1.80;;;6.50;99.90;;;;;;5097697;28;20140;-74
2023/11/04 01:21:00;;;;;;;2.15;2.03;;;6.50;99.90;;;;;;5093524;28;20071;-80
2023/11/04 01:23:26;;;;;;;2.00;1.80;;;6.50;99.90;;;;;;5092936;28;20367;-74
2023/11/04 01:25:52;;;;;;;2.00;1.90;;;6.50;99.90;;;;;;5030550;28;20024;-80
2023/11/04 01:28:17;;;;;;;2.22;2.05;;;6.50;99.90;;;;;;5096840;28;20049;-80
2023/11/04 01:30:43;;;;;;;2.92;2.03;;;6.50;99.90;;;;;;5030094;28;20471;-74
2023/11/04 01:33:09;;;;;;;1.80;1.70;;;6.50;99.90;;;;;;5098387;28;20017;-80
2023/11/04 01:35:34;;;;;;;3.38;1.55;;;6.50;99.90;;;;;;5030247;28;20482;-74
2023/11/04 01:38:00;;;;;;;1.90;1.70;;;6.60;99.90;;;;;;5029782;28;20037;-74
2023/11/04 01:40:26;;;;;;;1.70;1.60;;;6.60;99.90;;;;;;5098175;28;20045;-74
2023/11/04 01:42:52;;;;;;;2.83;2.47;;;6.50;99.90;;;;;;5098058;28;20032;-79
2023/11/04 01:45:18;;;;;;;2.60;2.08;;;6.50;99.90;;;;;;5030275;28;20022;-80
2023/11/04 01:47:44;;;;;;;2.45;1.75;;;6.50;99.90;;;;;;5029728;28;20096;-75
2023/11/04 01:50:10;;;;;;;1.52;1.42;;;6.50;99.90;;;;;;5030031;28;20037;-80
2023/11/04 01:52:42;;;;;;;2.47;1.75;;;6.50;99.90;;;;;;5029609;28;20104;-74
2023/11/04 01:55:09;;;;;;;1.45;1.35;;;6.50;99.90;;;;;;5098427;28;20021;-75
2023/11/04 01:57:36;;;;;;;2.50;2.05;;;6.50;99.90;;;;;;5029754;28;20108;-75
2023/11/04 02:00:04;;;;;;;1.52;1.42;;;6.50;99.90;;;;;;5029838;28;20459;-80
2023/11/04 02:02:31;;;;;;;3.20;1.65;;;6.50;99.90;;;;;;5027054;28;20467;-80
2023/11/04 02:04:57;;;;;;;3.10;1.58;;;6.50;99.90;;;;;;5097748;28;20542;-80
2023/11/04 02:07:25;;;;;;;3.00;1.63;;;6.50;99.90;;;;;;5097634;28;20029;-81
2023/11/04 02:09:52;;;;;;;2.00;1.60;;;6.40;99.90;;;;;;5029650;28;20036;-74
2023/11/04 02:12:20;;;;;;;1.30;1.20;;;6.40;99.90;;;;;;5041149;28;20033;-80
2023/11/04 02:14:52;;;;;;;2.28;2.08;;;6.40;99.90;;;;;;5043833;27;20025;-75
2023/11/04 02:17:18;;;;;;;;;;;6.40;99.90;;;;;;5028099;28;20036;-75
2023/11/04 02:19:44;;;;;;;2.25;1.63;;;6.40;99.90;;;;;;5032437;28;20118;-80
2023/11/04 02:22:10;;;;;;;1.85;1.75;;;6.30;99.90;;;;;;5096112;28;20074;-75
2023/11/04 02:24:36;;;;;;;1.70;1.60;;;6.40;99.90;;;;;;5021558;28;20072;-75
2023/11/04 02:27:01;;;;;;;3.08;1.58;;;6.30;99.90;;;;;;5091710;28;20080;-80
2023/11/04 02:29:27;;;;;;;1.92;1.73;;;6.30;99.90;;;;;;5028496;28;20021;-75
2023/11/04 02:31:53;;;;;;;1.75;1.65;;;6.30;99.90;;;;;;5097602;28;20025;-80
2023/11/04 02:34:19;;;;;;;1.55;1.20;;;6.30;99.90;;;;;;5029102;28;20479;-75
2023/11/04 02:36:44;;;;;;;1.50;1.40;;;6.40;99.90;;;;;;5029021;28;20029;-81
2023/11/04 02:39:10;;;;;;;1.70;1.48;;;6.30;99.90;;;;;;5029367;28;20029;-81
2023/11/04 02:41:36;;;;;;;1.98;1.40;;;6.40;99.90;;;;;;5084855;28;20029;-75
2023/11/04 02:44:01;;;;;;;1.30;1.20;;;6.40;99.90;;;;;;5095344;28;20030;-81
2023/11/04 02:46:27;;;;;;;2.25;1.35;;;6.30;99.90;;;;;;5019643;28;20106;-75
2023/11/04 02:48:53;;;;;;;1.25;1.17;;;6.40;99.90;;;;;;5028495;28;20022;-75
2023/11/04 02:51:18;;;;;;;1.55;1.48;;;6.40;99.90;;;;;;5084968;28;20030;-81
2023/11/04 02:53:44;;;;;;;1.85;1.63;;;6.40;99.90;;;;;;5020852;28;20099;-75
2023/11/04 02:56:09;;;;;;;2.30;1.52;;;6.40;99.90;;;;;;5088418;28;20022;-76
2023/11/04 02:58:35;;;;;;;1.77;1.55;;;6.50;99.90;;;;;;5097451;28;20021;-81
2023/11/04 03:01:01;;;;;;;1.25;1.20;;;6.50;99.90;;;;;;5028782;28;20028;-81
2023/11/04 03:03:27;;;;;;;1.33;1.20;;;6.50;99.90;;;;;;5019736;28;20030;-75
2023/11/04 03:05:53;;;;;;;1.35;1.30;;;6.50;99.90;;;;;;5094229;28;20047;-75
2023/11/04 03:08:19;;;;;;;2.85;1.75;;;6.50;99.90;;;;;;5096464;28;20029;-75
2023/11/04 03:10:44;;;;;;;1.27;1.27;;;6.50;99.90;;;;;;5028656;28;20094;-75
2023/11/04 03:13:10;;;;;;;1.67;1.58;;;6.50;99.90;;;;;;5097169;28;20390;-74
2023/11/04 03:15:36;;;;;;;2.15;1.48;;;6.60;99.90;;;;;;5096594;28;20120;-75
2023/11/04 03:18:02;;;;;;;1.40;1.30;;;6.60;99.90;;;;;;5097344;28;20080;-75
2023/11/04 03:20:28;;;;;;;1.85;1.30;;;6.60;99.90;;;;;;5028187;28;20559;-81
2023/11/04 03:22:53;;;;;;;2.88;2.53;;;6.70;99.90;;;;;;5028851;28;20054;-81
2023/11/04 03:25:20;;;;;;;2.75;1.35;;;6.60;99.90;;;;;;5029232;28;20021;-81
2023/11/04 03:27:46;;;;;;;1.35;1.35;;;6.70;99.90;;;;;;5022649;28;20072;-81
2023/11/04 03:30:11;;;;;;;2.38;1.65;;;6.70;99.90;;;;;;5098359;28;20429;-75
2023/11/04 03:32:37;;;;;;;1.60;1.50;;;6.70;99.90;;;;;;5025789;28;20032;-81
2023/11/04 03:35:03;;;;;;;2.20;1.35;;;6.70;99.90;;;;;;5029875;28;20463;-75
2023/11/04 03:37:29;;;;;;;1.92;1.45;;;6.70;99.90;;;;;;5032024;28;20105;-75
2023/11/04 03:39:56;;;;;;;1.65;1.30;;;6.70;99.90;;;;;;5092155;28;20113;-74
2023/11/04 03:42:22;;;;;;;1.58;1.23;;;6.70;99.90;;;;;;5097522;28;20014;-74
2023/11/04 03:44:47;;;;;;;1.40;1.30;;;6.70;99.90;;;;;;5026325;28;20018;-75
2023/11/04 03:47:13;;;;;;;1.45;1.25;;;6.80;99.90;;;;;;5100017;28;20033;-74
2023/11/04 03:49:39;;;;;;;1.55;1.45;;;6.80;99.90;;;;;;5030393;28;20433;-81
2023/11/04 03:52:07;;;;;;;2.83;1.45;;;6.80;99.90;;;;;;5029646;28;20037;-81
2023/11/04 03:54:35;;;;;;;2.70;2.10;;;6.80;99.90;;;;;;5111616;27;20033;-80
2023/11/04 03:57:01;;;;;;;2.13;1.30;;;6.80;99.90;;;;;;5029530;28;20510;-81
2023/11/04 03:59:27;;;;;;;1.45;1.35;;;6.80;99.90;;;;;;5100168;28;20116;-81
2023/11/04 04:01:52;;;;;;;1.70;1.30;;;6.80;99.90;;;;;;5031109;28;20100;-80
2023/11/04 04:04:18;;;;;;;1.60;1.50;;;6.90;99.90;;;;;;5030929;28;20021;-80
2023/11/04 04:06:44;;;;;;;1.80;1.60;;;6.80;99.90;;;;;;5030155;28;20546;-80
2023/11/04 04:09:10;;;;;;;1.30;1.10;;;6.90;99.90;;;;;;5031477;28;20112;-81
2023/11/04 04:11:35;;;;;;;1.48;1.17;;;6.90;99.90;;;;;;5031100;28;20045;-80
2023/11/04 04:14:01;;;;;;;2.25;1.27;;;6.90;99.90;;;;;;5100235;28;20018;-81
2023/11/04 04:16:27;;;;;;;1.77;1.25;;;6.90;99.90;;;;;;5031387;28;20033;-74
2023/11/04 04:18:53;;;;;;;2.30;1.85;;;6.90;99.90;;;;;;5099764;28;20030;-81
2023/11/04 04:21:19;;;;;;;1.77;1.42;;;6.90;99.90;;;;;;5018324;28;20025;-81
2023/11/04 04:23:46;;;;;;;1.35;1.25;;;6.90;99.90;;;;;;5031105;28;20111;-75
2023/11/04 04:26:22;;;;;;;1.80;1.02;;;6.90;99.90;;;;;;5090651;28;20399;-81
2023/11/04 04:28:48;;;;;;;1.58;0.95;;;7.00;99.90;;;;;;5099989;28;20444;-81
2023/11/04 04:31:14;;;;;;;1.70;1.08;;;7.00;99.90;;;;;;5030762;28;20067;-75
2023/11/04 04:33:41;;;;;;;1.50;1.40;;;7.00;99.90;;;;;;5031435;28;20017;-75
2023/11/04 04:36:08;;;;;;;2.95;1.38;;;6.90;99.90;;;;;;5098946;28;20436;-81
2023/11/04 04:38:33;;;;;;;1.75;1.13;;;6.90;99.90;;;;;;5099824;28;20070;-81
2023/11/04 04:40:59;;;;;;;1.73;1.52;;;6.90;99.90;;;;;;5030721;28;20021;-75
2023/11/04 04:43:25;;;;;;;5.93;3.33;;;6.90;99.90;;;;;;5031150;28;20049;-75
2023/11/04 04:45:51;;;;;;;2.00;1.58;;;6.90;99.90;;;;;;5086926;28;20059;-75
2023/11/04 04:48:16;;;;;;;1.35;1.10;;;6.90;99.90;;;;;;5099438;28;20029;-81
2023/11/04 04:50:42;;;;;;;3.42;1.70;;;6.90;99.90;;;;;;5030620;28;20033;-74
2023/11/04 04:53:08;;;;;;;1.48;1.38;;;7.00;99.90;;;;;;5096673;28;20044;-75
2023/11/04 04:55:33;;;;;;;1.67;1.50;;;7.00;99.90;;;;;;5027454;28;20074;-80
2023/11/04 04:57:59;;;;;;;1.30;1.20;;;6.90;99.90;;;;;;5030932;28;20028;-81
2023/11/04 05:00:24;;;;;;;1.60;1.30;;;6.90;99.90;;;;;;5030933;28;20026;-75
2023/11/04 05:02:50;;;;;;;1.23;1.15;;;7.00;99.90;;;;;;5030858;28;20030;-75
2023/11/04 05:05:16;;;;;;;1.38;1.23;;;6.90;99.90;;;;;;5030744;28;20034;-81
2023/11/04 05:07:41;;;;;;;1.80;1.40;;;6.90;99.90;;;;;;5030438;28;20033;-74
2023/11/04 05:10:09;;;;;;;1.60;1.50;;;6.90;99.90;;;;;;5030872;28;20041;-81
2023/11/04 05:12:36;;;;;;;1.75;1.48;;;6.90;99.90;;;;;;5098745;28;20029;-81
2023/11/04 05:15:02;;;;;;;1.10;1.00;;;6.90;99.90;;;;;;5030892;28;20024;-78
2023/11/04 05:17:28;;;;;;;1.52;1.17;;;6.90;99.90;;;;;;5098911;28;20448;-81
2023/11/04 05:19:55;;;;;;;1.60;1.27;;;6.90;99.90;;;;;;5030835;28;20355;-76
2023/11/04 05:22:23;;;;;;;1.10;1.10;;;6.90;99.90;;;;;;5097738;28;20032;-75
2023/11/04 05:24:49;;;;;;;2.88;1.38;;;6.80;99.90;;;;;;5086553;28;20402;-76
2023/11/04 05:27:15;;;;;;;2.10;1.30;;;6.90;99.90;;;;;;5098452;28;20383;-76
2023/11/04 05:29:41;;;;;;;1.88;1.20;;;6.80;99.90;;;;;;5098411;28;20055;-75
2023/11/04 05:32:07;;;;;;;2.10;1.40;;;6.80;99.90;;;;;;5097593;28;20021;-81
2023/11/04 05:34:33;;;;;;;2.30;1.38;;;6.80;99.90;;;;;;5096420;28;20108;-81
2023/11/04 05:36:59;;;;;;;1.77;1.17;;;6.80;99.90;;;;;;5030376;28;20066;-81
2023/11/04 05:39:25;;;;;;;2.35;1.38;;;6.80;99.90;;;;;;5098384;28;20073;-81
2023/11/04 05:41:52;;;;;;;3.95;1.35;;;6.70;99.90;;;;;;5028840;28;20046;-76
2023/11/04 05:44:17;;;;;;;1.30;1.20;;;6.70;99.90;;;;;;5090241;28;20393;-76
2023/11/04 05:46:47;;;;;;;1.40;1.10;;;6.70;99.90;;;;;;5098389;28;20081;-76
2023/11/04 05:49:12;;;;;;;8.02;1.75;;;6.60;99.90;;;;;;5098218;28;20100;-75
2023/11/04 05:51:38;;;;;;;1.13;1.02;;;6.60;99.90;;;;;;5098224;28;20124;-75
2023/11/04 05:54:04;;;;;;;1.50;1.20;;;6.50;99.90;;;;;;5097731;28;20022;-81
2023/11/04 05:56:30;;;;;;;1.20;1.20;;;6.50;99.90;;;;;;5029284;28;20029;-76
2023/11/04 05:58:55;;;;;;;1.13;1.10;;;6.50;99.90;;;;;;5077061;28;20030;-81
2023/11/04 06:01:24;;;;;;;1.25;1.15;;;6.50;99.90;;;;;;5097887;28;20010;-81
2023/11/04 06:03:51;;;;;;;3.88;1.65;;;6.50;99.90;;;;;;5098186;28;20021;-81
2023/11/04 06:06:20;;;;;;;2.47;1.50;;;6.50;99.90;;;;;;5029808;28;20024;-76
2023/11/04 06:08:47;;;;;;;3.38;1.35;;;6.50;99.90;;;;;;5089387;28;20014;-81
2023/11/04 06:11:13;;;;;;;2.92;1.40;;;6.40;99.90;;;;;;5029510;28;20102;-81
2023/11/04 06:13:39;;;;;;;3.70;1.60;;;6.50;99.90;;;;;;5096300;28;20033;-81
2023/11/04 06:16:06;;;;;;;1.58;1.48;;;6.50;99.90;;;;;;5023424;28;20073;-82
2023/11/04 06:18:32;;;;;;;3.65;1.58;;;6.50;99.90;;;;;;5097485;28;20017;-81
2023/11/04 06:20:57;;;;;;;1.45;1.35;;;6.50;99.90;;;;;;5019462;28;20053;-80
2023/11/04 06:23:23;;;;;;;4.13;1.52;;;6.50;99.90;;;;;;5029433;28;20018;-81
2023/11/04 06:25:49;;;;;;;1.92;1.50;;;6.60;99.90;;;;;;5094174;28;20513;-81
2023/11/04 06:28:15;;;;;;;4.82;2.10;;;6.60;99.90;;;;;;5083979;28;20064;-81
2023/11/04 06:30:40;;;;;;;3.42;2.05;;;6.60;99.90;;;;;;5018354;28;20505;-81
2023/11/04 06:33:06;;;;;;;5.10;2.00;;;6.60;99.90;;;;;;5082037;28;20018;-80
2023/11/04 06:35:33;;;;;;;2.85;1.90;;;6.70;99.90;;;;;;5017676;28;20026;-82
2023/11/04 06:38:01;;;;;;;3.15;1.50;;;6.70;99.90;;;;;;5091273;28;20025;-81
2023/11/04 06:40:27;;;;;;;2.85;1.50;;;6.70;99.90;;;;;;5028879;28;20104;-80
2023/11/04 06:42:52;;;;;;;1.83;1.70;;;6.80;99.90;;;;;;5017815;28;20112;-83
2023/11/04 06:45:18;;;;;;;2.90;1.92;;;6.80;99.90;;;;;;5027605;28;20025;-81
2023/11/04 06:47:44;;;;;;;6.47;2.88;;;6.90;99.90;;;;;;5071512;28;20029;-81
2023/11/04 06:50:10;;;;;;;2.80;2.38;;;7.00;99.90;;;;;;5086723;28;20034;-82
2023/11/04 06:52:36;;;;;;;3.75;1.98;;;7.10;99.90;;;;;;5083015;28;20029;-81
2023/11/04 06:55:02;;;;;;;3.67;1.60;;;7.20;99.90;;;;;;5020821;28;20014;-82
2023/11/04 06:57:28;;;;;;;1.90;1.40;;;7.30;99.90;;;;;;5095842;28;20024;-82
2023/11/04 06:59:54;;;;;;;5.30;2.38;;;7.30;99.90;;;;;;5015392;28;20038;-77
2023/11/04 07:02:20;;;;;;;3.63;1.70;;;7.40;99.90;;;;;;5109860;27;20062;-76
2023/11/04 07:04:46;;;;;;;1.77;1.55;;;7.40;99.90;;;;;;5090801;28;20455;-76
2023/11/04 07:07:11;;;;;;;1.77;1.48;;;7.30;99.90;;;;;;5019951;28;20101;-76
2023/11/04 07:09:38;;;;;;;4.22;1.90;;;7.40;99.90;;;;;;5020847;28;20030;-76
2023/11/04 07:12:04;;;;;;;3.85;2.17;;;7.50;99.90;;;;;;5089886;27;20540;-76
2023/11/04 07:14:31;;;;;;;2.78;1.65;;;7.50;99.90;;;;;;5093410;28;20504;-76
2023/11/04 07:16:57;;;;;;;3.03;1.60;;;7.50;99.90;;;;;;5083751;28;20064;-77
2023/11/04 07:19:23;;;;;;;2.22;1.77;;;7.60;99.90;;;;;;5100589;28;20048;-76
2023/11/04 07:21:49;;;;;;;1.70;1.30;;;7.60;99.90;;;;;;5098079;27;20440;-77
2023/11/04 07:24:14;;;;;;;2.25;1.50;;;7.70;99.90;;;;;;5095982;28;20053;-76
2023/11/04 07:26:41;;;;;;;2.58;1.52;;;7.70;99.90;;;;;;5020433;28;20115;-76
2023/11/04 07:29:06;;;;;;;1.80;1.65;;;7.70;99.90;;;;;;5024993;27;20037;-76
2023/11/04 07:31:35;;;;;;;3.88;1.30;;;7.70;99.90;;;;;;5027840;28;20038;-77
2023/11/04 07:34:02;;;;;;;2.80;1.70;;;7.70;99.90;;;;;;5028967;28;20499;-76
2023/11/04 07:36:28;;;;;;;2.60;1.45;;;7.60;99.90;;;;;;5095312;27;20026;-76
2023/11/04 07:38:55;;;;;;;3.42;1.50;;;7.60;99.90;;;;;;5026765;27;20501;-76
2023/11/04 07:41:21;;;;;;;2.30;1.80;;;7.60;99.90;;;;;;5097120;27;20032;-76
2023/11/04 07:43:46;;;;;;;1.63;1.52;;;7.60;99.90;;;;;;5092673;27;20055;-76
2023/11/04 07:46:12;;;;;;;3.13;1.90;;;7.50;99.90;;;;;;5098347;28;20025;-77
2023/11/04 07:48:38;;;;;;;3.78;2.20;;;7.60;99.90;;;;;;5094397;28;20018;-82
2023/11/04 07:51:04;;;;;;;3.10;1.77;;;7.60;99.90;;;;;;5091119;28;20554;-76
2023/11/04 07:53:30;;;;;;;3.83;1.80;;;7.60;99.90;;;;;;5027103;28;20048;-76
2023/11/04 07:55:56;;;;;;;2.72;1.88;;;7.60;99.90;;;;;;5029385;28;20078;-81
2023/11/04 07:58:21;;;;;;;2.20;1.75;;;7.60;99.90;;;;;;5018817;28;20554;-82
2023/11/04 08:00:49;;;;;;;4.00;2.03;;;7.60;99.90;;;;;;5085972;28;20116;-82
2023/11/04 08:03:15;;;;;;;2.45;1.80;;;7.70;99.90;;;;;;5023339;28;20068;-76
2023/11/04 08:05:40;;;;;;;3.05;1.80;;;7.70;99.90;;;;;;5019506;28;20443;-76
2023/11/04 08:08:14;;;;;;;2.25;1.80;;;7.70;99.90;;;;;;5099925;28;20372;-83
2023/11/04 08:10:40;;;;;;;3.70;2.20;;;7.60;99.90;;;;;;5030053;28;20098;-83
2023/11/04 08:13:05;;;;;;;2.35;2.00;;;7.60;99.90;;;;;;5019797;28;20113;-83
2023/11/04 08:15:31;;;;;;;2.65;2.10;;;7.60;99.90;;;;;;5018710;28;20112;-76
2023/11/04 08:18:00;;;;;;;4.28;2.25;;;7.50;99.90;;;;;;5096975;27;20111;-83
2023/11/04 08:20:26;;;;;;;3.15;2.13;;;7.50;99.90;;;;;;5094236;28;20481;-83
2023/11/04 08:22:51;;;;;;;4.43;2.40;;;7.50;99.90;;;;;;5026822;28;20041;-82
2023/11/04 08:25:17;;;;;;;4.57;2.13;;;7.60;99.90;;;;;;5045061;27;20052;-82
2023/11/04 08:27:42;;;;;;;3.03;2.08;;;7.60;99.90;;;;;;5106737;27;20070;-82
2023/11/04 08:30:09;;;;;;;3.53;2.28;;;7.50;99.90;;;;;;5105250;27;20021;-82
2023/11/04 08:32:35;;;;;;;2.53;2.08;;;7.50;99.90;;;;;;5042414;27;20024;-82
2023/11/04 08:35:00;;;;;;;4.18;2.15;;;7.60;99.90;;;;;;5037193;27;20025;-82
2023/11/04 08:37:27;;;;;;;4.40;2.55;;;7.60;99.90;;;;;;5097028;28;20028;-83
2023/11/04 08:39:55;;;;;;;3.28;2.10;;;7.70;99.90;;;;;;5048200;27;20478;-83
2023/11/04 08:42:22;;;;;;;2.67;1.85;;;7.70;99.90;;;;;;5026754;28;20030;-83
2023/11/04 08:44:48;;;;;;;4.40;2.30;;;7.80;99.90;;;;;;5030832;28;20087;-83
2023/11/04 08:47:13;;;;;;;2.38;2.03;;;7.80;99.90;;;;;;5030687;28;20468;-83
2023/11/04 08:49:39;;;;;;;4.43;2.10;;;7.80;99.90;;;;;;5026476;28;20022;-83
2023/11/04 08:52:05;;;;;;;2.58;1.92;;;7.80;99.90;;;;;;5099073;28;20112;-83
2023/11/04 08:54:30;;;;;;;3.67;2.40;;;7.90;99.90;;;;;;5030474;28;20029;-83
2023/11/04 08:56:56;;;;;;;3.97;2.25;;;8.00;99.90;;;;;;5030474;28;20018;-83
2023/11/04 08:59:22;;;;;;;3.88;1.98;;;8.20;99.90;;;;;;5024201;28;20483;-83
2023/11/04 09:01:47;;;;;;;4.53;2.05;;;8.30;99.90;;;;;;5030122;28;20030;-82
2023/11/04 09:04:13;;;;;;;3.92;2.38;;;8.50;99.90;;;;;;5029792;28;20105;-82
2023/11/04 09:06:39;;;;;;;3.40;2.03;;;8.60;99.90;;;;;;5098731;28;20117;-82
2023/11/04 09:09:07;;;;;;;2.22;1.88;;;8.70;99.90;;;;;;5028854;28;20116;-82
2023/11/04 09:11:35;;;;;;;2.92;1.90;;;8.70;99.90;;;;;;5098255;28;20037;-82
2023/11/04 09:14:04;;;;;;;4.38;2.03;;;8.80;99.90;;;;;;5021343;28;20032;-82
2023/11/04 09:16:33;;;;;;;3.35;1.80;;;8.90;99.90;;;;;;5093420;28;20131;-82
2023/11/04 09:18:59;;;;;;;3.10;2.10;;;9.00;99.90;;;;;;5025171;28;20046;-82
2023/11/04 09:21:25;;;;;;;4.22;2.13;;;9.20;99.90;;;;;;5023221;28;20108;-83
2023/11/04 09:23:51;;;;;;;2.33;2.13;;;9.20;99.90;;;;;;5023551;28;20571;-82
2023/11/04 09:26:19;;;;;;;3.40;1.92;;;9.30;99.90;;;;;;5028262;28;20386;-82
2023/11/04 09:28:44;;;;;;;3.25;1.90;;;9.30;99.90;;;;;;5024321;28;20099;-82
2023/11/04 09:31:10;;;;;;;2.90;2.13;;;9.40;99.90;;;;;;5096333;28;20037;-82
2023/11/04 09:33:36;;;;;;;2.90;1.50;;;9.30;99.90;;;;;;5029141;28;20092;-82
2023/11/04 09:36:03;;;;;;;2.13;1.67;;;9.30;99.90;;;;;;5085995;28;20089;-82
2023/11/04 09:38:29;;;;;;;2.38;1.63;;;9.40;99.90;;;;;;5030232;28;20017;-82
2023/11/04 09:40:54;;;;;;;2.42;1.63;;;9.40;99.30;;;;;;5030059;28;20040;-82
2023/11/04 09:43:22;;;;;;;3.53;1.52;;;9.40;99.40;;;;;;5023108;28;20021;-82
2023/11/04 09:45:47;;;;;;;4.60;1.67;;;9.30;98.00;;;;;;5090909;28;20082;-77
2023/11/04 09:48:13;;;;;;;4.65;1.95;;;9.20;97.90;;;;;;5029743;28;20018;-76
2023/11/04 09:50:39;;;;;;;6.18;1.83;;;9.20;97.00;;;;;;5098213;28;20030;-76
2023/11/04 09:53:14;;;;;;;2.17;1.73;;;9.30;98.90;;;;;;5029853;28;20093;-76
2023/11/04 09:55:41;;;;;;;5.60;2.47;;;9.50;98.80;;;;;;5019583;28;20026;-76
2023/11/04 09:58:08;;;;;;;3.80;1.73;;;9.60;95.50;;;;;;5097762;28;20024;-76
2023/11/04 10:00:36;;;;;;;2.85;1.70;;;9.70;95.60;;;;;;5097786;28;20029;-76
2023/11/04 10:03:01;;;;;;;4.57;2.00;;;9.80;93.70;;;;;;5095147;28;20029;-76
2023/11/04 10:05:28;;;;;;;1.60;1.42;;;10.00;95.00;;;;;;5080043;28;20029;-76
2023/11/04 10:07:56;;;;;;;2.83;1.77;;;10.10;91.20;;;;;;5025056;28;20053;-75
2023/11/04 10:10:21;;;;;;;1.92;1.70;;;10.10;90.40;;;;;;5095396;28;20042;-75
2023/11/04 10:12:47;;;;;;;7.07;2.08;;;10.20;89.00;;;;;;5091456;28;20036;-75
2023/11/04 10:15:13;;;;;;;9.23;2.53;;;10.30;91.60;;;;;;5022634;28;20474;-75
2023/11/04 10:17:38;;;;;;;3.30;1.58;;;10.30;86.50;;;;;;5028918;28;20066;-76
2023/11/04 10:20:11;;;;;;;2.80;1.63;;;10.30;86.10;;;;;;5097330;28;20030;-75
2023/11/04 10:22:37;;;;;;;4.50;2.40;;;10.30;85.40;;;;;;5018038;28;20026;-75
2023/11/04 10:25:07;;;;;;;3.20;1.75;;;10.40;86.10;;;;;;5094476;28;20033;-75
2023/11/04 10:27:33;;;;;;;4.32;1.80;;;10.50;85.80;;;;;;5091019;28;20546;-75
2023/11/04 10:29:59;;;;;;;5.80;1.85;;;10.60;84.60;;;;;;5024863;28;20071;-75
2023/11/04 10:32:32;;;;;;;3.40;1.73;;;10.60;84.70;;;;;;5092584;28;20042;-75
2023/11/04 10:34:59;;;;;;;3.63;2.00;;;10.70;83.60;;;;;;5092018;28;20030;-75
2023/11/04 10:37:26;;;;;;;2.58;1.80;;;10.70;84.30;;;;;;5096913;28;20028;-76
2023/11/04 10:39:55;;;;;;;2.42;1.88;;;10.60;81.50;;;;;;5020697;28;20034;-75
2023/11/04 10:42:24;;;;;;;2.78;1.98;;;10.60;83.40;;;;;;5056162;27;20032;-75
2023/11/04 10:44:54;;;;;;;3.55;2.00;;;10.70;83.80;;;;;;5096788;28;20470;-76
2023/11/04 10:47:43;;;;;;;4.10;1.80;;;10.60;81.40;;;;;;5027358;28;20057;-75
2023/11/04 10:50:14;;;;;;;6.43;2.20;;;10.70;82.80;;;;;;5030311;28;20041;-75
2023/11/04 10:53:08;;;;;;;4.90;1.75;;;10.60;80.90;;;;;;5028187;28;20022;-75
2023/11/04 10:55:42;;;;;;;2.22;2.00;;;10.60;81.00;;;;;;5030444;28;20022;-75
2023/11/04 10:58:13;;;;;;;3.83;2.03;;;10.70;84.40;;;;;;5100746;28;20021;-76
2023/11/04 11:00:40;;;;;;;3.85;1.85;;;10.70;81.90;;;;;;5092199;28;20033;-75
2023/11/04 11:03:06;;;;;;;3.17;1.80;;;10.80;80.90;;;;;;5100529;28;20071;-76
2023/11/04 11:05:34;;;;;;;1.70;1.60;;;10.80;79.70;;;;;;5029427;28;20076;-75
2023/11/04 11:08:03;;;;;;;3.25;1.92;;;10.80;77.90;;;;;;5097609;28;20018;-76
2023/11/04 11:10:45;;;;;;;3.42;1.67;;;10.80;78.40;;;;;;5100346;28;20150;-83
2023/11/04 11:13:17;;;;;;;2.35;1.92;;;10.90;79.20;;;;;;5016129;28;20037;-77
2023/11/04 11:15:43;;;;;;;2.67;1.42;;;10.90;77.70;;;;;;5093974;27;20034;-83
2023/11/04 11:18:11;;;;;;;2.13;1.60;;;10.80;76.30;;;;;;5081451;28;20030;-83
2023/11/04 11:20:37;;;;;;;5.00;1.52;;;10.80;78.40;;;;;;5100458;28;20490;-76
2023/11/04 11:23:08;;;;;;;3.35;1.77;;;10.70;77.80;;;;;;5032274;28;20036;-84
2023/11/04 11:25:37;;;;;;;4.22;2.28;;;10.60;78.50;;;;;;5088501;28;20051;-76
2023/11/04 11:28:15;;;;;;;3.53;2.03;;;10.60;77.40;;;;;;5025675;28;20121;-75
2023/11/04 11:30:43;;;;;;;2.05;1.30;;;10.60;76.90;;;;;;5024524;28;20383;-76
2023/11/04 11:33:11;;;;;;;2.03;1.67;;;10.70;79.00;;;;;;5031997;28;20100;-77
2023/11/04 11:36:06;;;;;;;3.83;1.70;;;10.60;77.90;;;;;;5030405;28;20026;-83
2023/11/04 11:38:36;;;;;;;3.15;1.40;;;10.60;76.20;;;;;;5075685;27;20033;-82
2023/11/04 11:41:10;;;;;;;3.13;1.50;;;10.60;77.00;;;;;;5031117;28;20022;-83
2023/11/04 11:43:37;;;;;;;1.83;1.40;;;10.60;77.20;;;;;;5031425;28;20100;-83
2023/11/04 11:46:06;;;;;;;2.25;1.40;;;10.60;75.80;;;;;;5065972;27;20026;-82
2023/11/04 11:48:39;;;;;;;5.63;1.77;;;10.60;76.00;;;;;;5099518;28;20022;-82
2023/11/04 11:51:12;;;;;;;3.38;1.48;;;10.50;75.70;;;;;;5026344;28;20037;-83
2023/11/04 11:53:44;;;;;;;1.58;1.48;;;10.60;75.90;;;;;;5025002;28;20013;-81
2023/11/04 11:56:11;;;;;;;2.42;1.60;;;10.60;75.40;;;;;;5099385;28;20067;-83
2023/11/04 11:58:37;;;;;;;4.07;1.70;;;10.60;75.90;;;;;;5038857;27;20031;-83
2023/11/04 12:01:05;;;;;;;1.85;1.40;;;10.60;76.90;;;;;;5045243;27;20468;-83
2023/11/04 12:03:31;;;;;;;3.95;1.40;;;10.50;76.10;;;;;;5101285;27;20112;-82
2023/11/04 12:05:57;;;;;;;3.00;1.70;;;10.50;77.10;;;;;;5101097;27;20139;-83
2023/11/04 12:08:23;;;;;;;2.10;1.55;;;10.50;77.20;;;;;;5032131;27;20364;-84
2023/11/04 12:10:49;;;;;;;1.95;1.38;;;10.60;76.80;;;;;;5029917;28;20039;-83
2023/11/04 12:13:14;;;;;;;4.22;1.80;;;10.60;77.90;;;;;;5030032;27;20030;-76
2023/11/04 12:15:44;;;;;;;5.07;1.88;;;10.60;76.00;;;;;;5029131;28;20017;-76
2023/11/04 12:18:14;;;;;;;3.63;1.65;;;10.70;75.50;;;;;;5097397;27;20022;-75
2023/11/04 12:20:44;;;;;;;3.25;1.52;;;10.60;74.40;;;;;;5024346;28;20112;-76
2023/11/04 12:23:13;;;;;;;5.07;1.60;;;10.70;74.50;;;;;;5024802;28;20032;-76
2023/11/04 12:25:41;;;;;;;5.28;1.65;;;10.70;74.10;;;;;;5094381;28;20498;-84
2023/11/04 12:28:08;;;;;;;5.25;1.52;;;10.80;72.90;;;;;;5024998;28;20054;-83
2023/11/04 12:30:34;;;;;;;3.20;1.35;;;10.80;73.80;;;;;;5018232;28;20112;-77
2023/11/04 12:33:02;;;;;;;2.67;1.48;;;10.90;73.60;;;;;;5025571;28;20096;-76
2023/11/04 12:35:29;;;;;;;3.45;1.50;;;10.90;73.20;;;;;;5095451;28;20512;-77
2023/11/04 12:37:55;;;;;;;2.55;1.40;;;10.90;72.50;;;;;;5026827;28;20021;-76
2023/11/04 12:40:21;;;;;;;3.90;1.67;;;10.90;72.40;;;;;;5028190;28;20108;-77
2023/11/04 12:42:48;;;;;;;4.75;1.50;;;10.90;73.10;;;;;;5018318;28;20450;-76
2023/11/04 12:45:15;;;;;;;2.85;1.50;;;11.00;73.40;;;;;;5094879;28;20045;-77
2023/11/04 12:47:41;;;;;;;1.35;1.25;;;11.00;74.00;;;;;;5060112;27;20468;-83
2023/11/04 12:50:11;;;;;;;2.47;1.52;;;11.00;72.70;;;;;;5030131;28;20094;-83
2023/11/04 12:52:37;;;;;;;3.45;1.75;;;10.90;73.40;;;;;;5027707;28;20021;-77